ADDS METAR Data INFO
IDs: Format: Raw Decoded Include TAF

Data at: 1557 UTC 12 Dec 2017

PASX 121456Z AUTO 08008KT 10SM CLR 04/00 A2966 RMK AO2 SLP055 T00440000 53010
PASX 121356Z AUTO 08012KT 10SM BKN110 05/M01 A2965 RMK AO2 SLP050 T00501006
PASX 121256Z AUTO 05010KT 10SM OVC110 05/M01 A2964 RMK AO2 SLP046 T00501011
PASX 121156Z AUTO 07010KT 10SM OVC110 05/M01 A2963 RMK AO2 SLP045 70003 T00501006 10050 20039 58013
PASX 121056Z AUTO 06006KT 10SM FEW060 OVC100 04/M01 A2965 RMK AO2 SLP051 T00441011
PASX 120956Z AUTO 08011KT 10SM OVC110 05/M01 A2966 RMK AO2 SLP053 T00501006
PASX 120856Z AUTO 08008KT 10SM BKN100 04/00 A2967 RMK AO2 SLP058 T00440000 400610011 58003
PASX 120756Z AUTO 07007KT 10SM CLR 04/00 A2969 RMK AO2 SLP063 T00390000
PASX 120656Z AUTO 08005KT 10SM SCT070 04/00 A2969 RMK AO2 SLP063 T00390000
PASX 120556Z AUTO 08007KT 10SM FEW090 04/01 A2968 RMK AO2 SLP061 T00390006 10039 20017 58004
PASX 120456Z AUTO 08011KT 10SM CLR 04/01 A2970 RMK AO2 SLP066 T00390006
PASX 120356Z AUTO 00000KT 10SM BKN065 OVC120 03/01 A2970 RMK AO2 SLP067 T00330006
PASX 120256Z AUTO 00000KT 10SM SCT080 OVC110 03/01 A2969 RMK AO2 SLP065 T00280006 51012
PASX 120156Z AUTO 02003KT 10SM OVC060 02/01 A2969 RMK AO2 SLP062 T00220006 FZRANO
PASX 120056Z AUTO 00000KT 10SM BKN055 OVC080 02/00 A2967 RMK AO2 SLP058 T00170000 FZRANO
PASX 112356Z AUTO 00000KT 10SM BKN060 OVC120 04/01 A2966 RMK AO2 SLP054 60000 T00390006 10061 20033 51034
PASX 112256Z AUTO 10007KT 10SM CLR 05/00 A2963 RMK AO2 SLP044 T00500000
PASX 112156Z AUTO 15009KT 10SM CLR 06/M01 A2960 RMK AO2 SLP034 T00561006
PASX 112056Z AUTO 13010KT 10SM CLR 06/M01 A2956 RMK AO2 SLP019 60000 T00611006 51084
PASX 111956Z AUTO VRB06KT 10SM CLR 06/01 A2949 RMK AO2 PRESRR SLP996 T00610006
PASX 111856Z AUTO 11004KT 10SM BKN065 06/01 A2940 RMK AO2 RAE15 PRESRR SLP964 P0000 T00560011
PASX 111756Z AUTO 14006KT 10SM -RA SCT055 OVC070 06/02 A2931 RMK AO2 PRESRR SLP935 P0003 60003 T00610017 10061 20011 53090
PASX 111656Z AUTO 14004KT 10SM -RA FEW049 OVC080 05/02 A2920 RMK AO2 RAB51 PRESRR SLP899 P0000 T00500017
PASX 111556Z AUTO 11006KT 10SM FEW046 BKN055 BKN075 02/01 A2912 RMK AO2 PRESRR SLP871 T00220011 FZRANO
PASX 111456Z AUTO 00000KT 10SM SCT100 02/01 A2904 RMK AO2 SLP844 T00170011 53042 FZRANO
PASX 111356Z AUTO 04006KT 10SM FEW050 BKN070 03/01 A2898 RMK AO2 SLP823 T00330011
PASX 111256Z AUTO 05006KT 10SM OVC060 03/01 A2895 RMK AO2 SLP812 T00330006
PASX 111156Z AUTO 04008KT 10SM FEW030 03/01 A2892 RMK AO2 SLP802 60001 70006 T00330006 10033 20022 56010
PASX 111056Z AUTO 03008KT 360V060 10SM FEW035 SCT050 03/00 A2892 RMK AO2 SLP802 T00280000
PASX 110956Z AUTO 03008KT 360V060 10SM SCT039 BKN050 03/00 A2894 RMK AO2 SLP808 T00280000
PASX 110856Z AUTO 05006KT 10SM FEW032 BKN050 OVC120 03/01 A2895 RMK AO2 RAE27 SLP812 P0000 60001 T00280006 400441011 56040
PASX 110756Z AUTO 04012G21KT 10SM -RA FEW030 BKN039 OVC060 03/M01 A2898 RMK AO2 SLP822 P0001 T00281006
PASX 110656Z AUTO 03010G19KT 10SM -RA SCT029 BKN034 OVC043 03/00 A2902 RMK AO2 SLP838 P0000 T00280000
PASX 110556Z AUTO 04007KT 10SM -RA BKN048 OVC065 03/01 A2907 RMK AO2 SLP853 P0000 60005 T00280006 10044 20028 56047
PASX 110523Z AUTO 02009KT 10SM -RA FEW027 BKN036 BKN043 03/01 A2910 RMK AO2 P0000
PASX 110456Z AUTO 02009G17KT 10SM -RA BKN026 OVC034 03/01 A2912 RMK AO2 PRESFR SLP870 P0002 T00330011
PASX 110447Z AUTO 03010G16KT 10SM -RA BKN026 OVC032 03/01 A2913 RMK AO2 PRESFR P0002